Time;durP1;ratioP1;P1;durP2;ratioP2;P2;SDS_P1;SDS_P2;PMS_P1;PMS_P2;Temp;Humidity;BMP_temperature;BMP_pressure;BME280_temperature;BME280_humidity;BME280_pressure;Samples;Min_cycle;Max_cycle;Signal;HPM_P1;HPM_P2
2023/01/13 00:01:21;;;;;;;4.97;1.70;;;10.30;99.90;;;;;;6013672;23;20493;-77
2023/01/13 00:03:51;;;;;;;4.47;1.83;;;10.30;99.90;;;;;;6013897;23;20423;-78
2023/01/13 00:06:24;;;;;;;6.10;2.00;;;10.20;99.90;;;;;;6013705;23;20455;-78
2023/01/13 00:08:53;;;;;;;4.97;1.90;;;10.20;99.90;;;;;;6013877;23;20867;-78
2023/01/13 00:11:23;;;;;;;6.67;2.20;;;10.20;99.90;;;;;;6014538;23;20458;-78
2023/01/13 00:13:51;;;;;;;5.23;2.00;;;10.20;99.90;;;;;;6048912;23;20577;-77
2023/01/13 00:16:20;;;;;;;4.13;1.80;;;10.10;99.90;;;;;;6013991;23;20440;-77
2023/01/13 00:18:50;;;;;;;7.00;2.43;;;10.20;99.90;;;;;;6048935;23;20414;-77
2023/01/13 00:21:23;;;;;;;4.30;2.27;;;10.20;99.90;;;;;;6014219;23;20748;-77
2023/01/13 00:23:52;;;;;;;4.27;1.63;;;;;;;;;;6013750;23;20947;-76
2023/01/13 00:26:23;;;;;;;7.63;2.23;;;10.10;99.90;;;;;;6016578;23;20462;-77
2023/01/13 00:28:56;;;;;;;4.27;1.97;;;10.20;99.90;;;;;;6016987;23;20450;-77
2023/01/13 00:31:24;;;;;;;5.00;2.03;;;10.10;99.90;;;;;;6017122;23;20412;-76
2023/01/13 00:33:55;;;;;;;6.63;2.40;;;10.20;99.90;;;;;;6052010;23;20400;-77
2023/01/13 00:36:25;;;;;;;6.60;1.87;;;10.10;99.90;;;;;;6016574;23;20463;-77
2023/01/13 00:38:53;;;;;;;5.97;2.27;;;10.10;99.90;;;;;;6017351;23;20761;-77
2023/01/13 00:41:23;;;;;;;5.90;2.20;;;10.20;99.90;;;;;;6042270;23;20412;-77
2023/01/13 00:43:51;;;;;;;5.40;2.20;;;10.20;99.90;;;;;;6016677;23;20404;-77
2023/01/13 00:46:21;;;;;;;4.90;2.13;;;10.10;99.90;;;;;;6016610;23;20982;-77
2023/01/13 00:48:50;;;;;;;6.90;2.40;;;10.10;99.90;;;;;;6051696;23;20419;-77
2023/01/13 00:51:20;;;;;;;9.73;3.00;;;10.10;99.90;;;;;;6051439;23;20393;-76
2023/01/13 00:53:52;;;;;;;6.97;2.20;;;10.20;99.90;;;;;;6016469;23;20434;-77
2023/01/13 00:56:22;;;;;;;7.20;2.70;;;10.10;99.90;;;;;;6051464;23;20884;-77
2023/01/13 00:59:10;;;;;;;6.33;2.50;;;10.10;99.90;;;;;;6016058;23;20428;-77
2023/01/13 01:01:38;;;;;;;9.63;2.93;;;10.10;99.90;;;;;;6015965;23;20457;-77
2023/01/13 01:04:07;;;;;;;5.83;2.47;;;10.10;99.90;;;;;;6015987;23;20431;-76
2023/01/13 01:06:35;;;;;;;7.77;2.80;;;10.00;99.90;;;;;;6015716;23;20456;-77
2023/01/13 01:09:05;;;;;;;10.40;2.80;;;10.00;99.90;;;;;;6016183;23;20929;-77
2023/01/13 01:11:34;;;;;;;5.80;2.37;;;10.00;99.90;;;;;;6015933;23;20416;-77
2023/01/13 01:14:03;;;;;;;7.83;2.30;;;10.00;99.90;;;;;;6050688;23;20423;-76
2023/01/13 01:16:33;;;;;;;12.20;2.90;;;9.90;99.90;;;;;;6016030;23;20779;-77
2023/01/13 01:19:02;;;;;;;10.30;2.87;;;9.90;99.90;;;;;;6016156;23;20420;-77
2023/01/13 01:21:31;;;;;;;8.83;2.67;;;9.90;99.90;;;;;;6015745;23;20424;-77
2023/01/13 01:24:01;;;;;;;8.17;1.93;;;9.80;99.90;;;;;;6016261;23;20448;-77
2023/01/13 01:26:31;;;;;;;7.60;3.13;;;9.80;99.90;;;;;;6015621;23;20462;-77
2023/01/13 01:29:01;;;;;;;9.63;2.70;;;9.80;99.90;;;;;;6049978;23;20471;-77
2023/01/13 01:31:31;;;;;;;10.60;2.83;;;9.80;99.90;;;;;;6049888;23;20404;-77
2023/01/13 01:34:00;;;;;;;9.63;3.20;;;9.80;99.90;;;;;;6015228;23;20436;-77
2023/01/13 01:36:29;;;;;;;12.77;3.40;;;9.70;99.90;;;;;;6015125;23;20443;-76
2023/01/13 01:38:58;;;;;;;10.50;3.50;;;9.70;99.90;;;;;;6014939;23;20416;-77
2023/01/13 01:41:28;;;;;;;11.00;3.20;;;9.60;99.90;;;;;;6015032;23;20432;-76
2023/01/13 01:43:58;;;;;;;11.43;3.00;;;9.70;99.90;;;;;;6014959;23;20748;-77
2023/01/13 01:46:28;;;;;;;11.80;3.90;;;9.60;99.90;;;;;;6049506;23;20444;-77
2023/01/13 01:49:02;;;;;;;14.30;4.07;;;9.50;99.90;;;;;;6018122;23;20813;-76
2023/01/13 01:51:33;;;;;;;9.37;3.50;;;9.60;99.90;;;;;;6049668;23;20766;-77
2023/01/13 01:54:03;;;;;;;14.00;4.37;;;9.50;99.90;;;;;;6038503;23;20442;-77
2023/01/13 01:56:34;;;;;;;13.97;4.13;;;9.50;99.90;;;;;;6049657;23;20507;-77
2023/01/13 01:59:04;;;;;;;13.77;3.50;;;9.50;99.90;;;;;;6038488;23;20760;-77
2023/01/13 02:01:33;;;;;;;14.53;4.43;;;9.50;99.90;;;;;;6038354;23;20446;-76
2023/01/13 02:04:07;;;;;;;11.20;4.23;;;9.40;99.90;;;;;;6038291;23;20424;-77
2023/01/13 02:06:35;;;;;;;15.90;4.90;;;9.40;99.90;;;;;;6049499;23;20526;-77
2023/01/13 02:09:03;;;;;;;14.70;4.17;;;9.40;99.90;;;;;;6038395;23;20423;-77
2023/01/13 02:14:23;;;;;;;12.30;4.23;;;9.30;99.90;;;;;;6038441;23;20421;-77
2023/01/13 02:17:07;;;;;;;13.27;4.60;;;9.30;99.90;;;;;;6049254;23;20448;-76
2023/01/13 02:20:25;;;;;;;15.60;4.77;;;9.30;99.90;;;;;;6038542;23;20418;-76
2023/01/13 02:26:52;;;;;;;18.40;5.17;;;9.20;99.90;;;;;;6039946;23;20471;-76
2023/01/13 02:32:40;;;;;;;17.83;5.07;;;9.20;99.90;;;;;;6040151;23;20759;-76
2023/01/13 02:35:14;;;;;;;14.33;5.20;;;9.10;99.90;;;;;;6040067;23;20408;-76
2023/01/13 02:37:44;;;;;;;16.40;4.90;;;9.10;99.90;;;;;;6039985;23;20439;-76
2023/01/13 02:40:17;;;;;;;13.93;4.00;;;9.00;99.90;;;;;;6040285;23;20432;-76
2023/01/13 02:45:44;;;;;;;13.20;5.00;;;9.00;99.90;;;;;;6040477;23;20455;-76
2023/01/13 02:48:15;;;;;;;14.87;3.87;;;9.10;99.90;;;;;;6040456;23;20744;-77
2023/01/13 02:50:46;;;;;;;15.10;5.30;;;9.00;99.90;;;;;;6040320;23;20868;-77
2023/01/13 02:53:19;;;;;;;13.63;4.60;;;9.00;99.90;;;;;;6040450;23;20509;-77
2023/01/13 02:55:51;;;;;;;13.33;4.77;;;9.00;99.90;;;;;;6051428;23;20423;-76
2023/01/13 02:58:24;;;;;;;14.40;4.97;;;9.00;99.90;;;;;;6040174;23;20400;-77
2023/01/13 03:00:53;;;;;;;13.47;4.47;;;9.00;99.90;;;;;;6040136;23;20725;-77
2023/01/13 03:03:22;;;;;;;18.10;6.03;;;9.00;99.90;;;;;;6041890;23;20414;-76
2023/01/13 03:05:53;;;;;;;17.87;5.47;;;8.90;99.90;;;;;;6051075;23;20427;-77
2023/01/13 03:08:38;;;;;;;15.20;5.40;;;8.90;99.90;;;;;;6040077;23;20812;-76
2023/01/13 03:11:09;;;;;;;13.07;4.60;;;9.00;99.90;;;;;;6040178;23;20427;-76
2023/01/13 03:13:53;;;;;;;21.00;5.17;;;8.90;99.90;;;;;;6039954;23;20420;-76
2023/01/13 03:16:30;;;;;;;14.60;4.50;;;8.90;99.90;;;;;;6041835;23;20443;-77
2023/01/13 03:19:14;;;;;;;15.57;4.70;;;8.90;99.90;;;;;;6051512;23;20467;-77
2023/01/13 03:21:51;;;;;;;21.00;5.40;;;8.90;99.90;;;;;;6051669;23;20458;-76
2023/01/13 03:24:25;;;;;;;17.30;5.57;;;8.90;99.90;;;;;;6040177;23;20438;-77
2023/01/13 03:27:00;;;;;;;15.87;5.30;;;8.90;99.90;;;;;;6051408;23;20440;-76
2023/01/13 03:29:35;;;;;;;13.57;4.70;;;8.90;99.90;;;;;;6051238;23;20410;-76
2023/01/13 03:32:08;;;;;;;22.17;6.03;;;8.90;99.90;;;;;;6039927;23;20415;-77
2023/01/13 03:34:43;;;;;;;18.17;5.67;;;8.90;99.90;;;;;;6041788;23;20473;-77
2023/01/13 03:37:13;;;;;;;13.27;5.57;;;8.80;99.90;;;;;;6041288;23;20962;-76
2023/01/13 03:39:47;;;;;;;16.27;5.87;;;8.80;99.90;;;;;;6039817;23;20916;-77
2023/01/13 03:42:19;;;;;;;13.90;4.97;;;8.80;99.90;;;;;;6050963;23;20400;-77
2023/01/13 03:44:51;;;;;;;18.97;6.37;;;8.80;99.90;;;;;;6039753;23;20408;-76
2023/01/13 03:47:26;;;;;;;17.10;5.53;;;8.80;99.90;;;;;;6039659;23;20963;-77
2023/01/13 03:49:59;;;;;;;13.50;4.90;;;8.80;99.90;;;;;;6039547;23;20434;-76
2023/01/13 03:52:32;;;;;;;15.00;4.97;;;8.80;99.90;;;;;;6039595;23;20416;-76
2023/01/13 03:55:04;;;;;;;19.27;5.90;;;8.70;99.90;;;;;;6039811;23;20411;-77
2023/01/13 03:57:37;;;;;;;15.17;5.40;;;8.70;99.90;;;;;;6041031;23;20434;-76
2023/01/13 04:00:08;;;;;;;24.30;6.10;;;8.70;99.90;;;;;;6039698;23;20935;-77
2023/01/13 04:02:58;;;;;;;14.93;5.20;;;8.70;99.90;;;;;;6039631;23;20422;-77
2023/01/13 04:05:28;;;;;;;13.20;5.03;;;8.70;99.90;;;;;;6037151;23;20424;-76
2023/01/13 04:08:05;;;;;;;21.13;6.37;;;8.60;99.90;;;;;;6039293;23;20478;-76
2023/01/13 04:10:38;;;;;;;16.20;5.63;;;8.60;99.90;;;;;;6039497;23;20439;-77
2023/01/13 04:13:10;;;;;;;17.97;4.90;;;8.60;99.90;;;;;;6050838;23;20394;-76
2023/01/13 04:15:41;;;;;;;19.57;6.27;;;8.60;99.90;;;;;;6050671;23;20388;-76
2023/01/13 04:18:12;;;;;;;18.57;5.87;;;8.60;99.90;;;;;;6039256;23;20415;-77
2023/01/13 04:20:42;;;;;;;23.60;5.80;;;8.60;99.90;;;;;;6039276;23;20753;-76
2023/01/13 04:23:12;;;;;;;20.73;6.23;;;8.60;99.90;;;;;;6039376;23;20428;-76
2023/01/13 04:25:41;;;;;;;16.90;6.03;;;8.60;99.90;;;;;;6039262;23;20514;-77
2023/01/13 04:28:09;;;;;;;17.83;5.40;;;8.60;99.90;;;;;;6039148;23;20443;-76
2023/01/13 04:30:38;;;;;;;17.13;6.10;;;8.50;99.90;;;;;;6051162;23;20429;-76
2023/01/13 04:33:06;;;;;;;24.30;6.13;;;8.50;99.90;;;;;;6051110;23;20436;-76
2023/01/13 04:35:37;;;;;;;21.47;5.70;;;8.50;99.90;;;;;;6039709;23;20916;-76
2023/01/13 04:38:07;;;;;;;18.70;6.30;;;8.70;99.90;;;;;;6050244;23;20389;-76
2023/01/13 04:40:35;;;;;;;13.90;4.67;;;8.50;99.90;;;;;;6039059;23;20423;-76
2023/01/13 04:43:04;;;;;;;22.47;6.57;;;8.50;99.90;;;;;;6040424;23;20408;-76
2023/01/13 04:45:32;;;;;;;19.80;6.03;;;8.50;99.90;;;;;;6040775;23;20430;-76
2023/01/13 04:48:00;;;;;;;19.77;5.10;;;8.50;99.90;;;;;;6038688;23;20557;-76
2023/01/13 04:50:28;;;;;;;17.07;5.50;;;8.50;99.90;;;;;;6038505;23;20424;-76
2023/01/13 04:52:59;;;;;;;18.47;5.87;;;8.50;99.90;;;;;;6050254;23;20406;-77
2023/01/13 04:55:27;;;;;;;20.53;6.97;;;8.50;99.90;;;;;;6038805;23;20439;-77
2023/01/13 04:57:55;;;;;;;18.23;5.97;;;8.50;99.90;;;;;;6049900;23;20404;-77
2023/01/13 05:00:23;;;;;;;20.37;7.40;;;8.50;99.90;;;;;;6040862;23;20597;-77
2023/01/13 05:02:52;;;;;;;14.43;6.00;;;8.50;99.90;;;;;;6038810;23;20452;-76
2023/01/13 05:05:20;;;;;;;17.80;5.57;;;8.50;99.90;;;;;;6040374;23;20778;-77
2023/01/13 05:07:49;;;;;;;23.07;7.10;;;8.50;99.90;;;;;;6038945;23;20447;-76
2023/01/13 05:10:18;;;;;;;26.50;6.73;;;8.50;99.90;;;;;;6049788;23;20410;-76
2023/01/13 05:18:20;;;;;;;18.33;5.83;;;8.50;99.90;;;;;;6038761;23;20412;-76
2023/01/13 05:20:50;;;;;;;18.13;5.87;;;8.50;99.90;;;;;;6049668;23;20401;-76
2023/01/13 05:26:12;;;;;;;15.17;6.07;;;8.50;99.90;;;;;;6038515;23;20440;-76
2023/01/13 05:28:41;;;;;;;22.20;6.73;;;8.50;99.90;;;;;;6038691;23;20446;-76
2023/01/13 05:31:10;;;;;;;17.83;6.57;;;8.50;99.90;;;;;;6038822;23;20816;-76
2023/01/13 05:33:39;;;;;;;20.57;6.60;;;8.40;99.90;;;;;;6038675;23;20430;-77
2023/01/13 05:36:08;;;;;;;21.13;7.03;;;8.40;99.90;;;;;;6038470;23;21002;-76
2023/01/13 05:38:36;;;;;;;20.23;5.90;;;8.40;99.90;;;;;;6038472;23;20520;-76
2023/01/13 05:43:51;;;;;;;26.67;6.63;;;8.40;99.90;;;;;;6038590;23;20833;-76
2023/01/13 05:46:19;;;;;;;17.77;5.60;;;8.40;99.90;;;;;;6049513;23;20425;-77
2023/01/13 05:48:47;;;;;;;15.43;5.93;;;8.40;99.90;;;;;;6040199;23;20479;-77
2023/01/13 05:51:15;;;;;;;18.67;5.50;;;8.40;99.90;;;;;;6049694;23;20789;-76
2023/01/13 05:53:43;;;;;;;23.43;6.60;;;8.40;99.90;;;;;;6014652;23;20427;-76
2023/01/13 05:56:13;;;;;;;22.37;6.27;;;8.40;99.90;;;;;;6050068;23;20427;-77
2023/01/13 05:58:41;;;;;;;19.30;6.63;;;8.40;99.90;;;;;;6014709;23;20424;-76
2023/01/13 06:01:10;;;;;;;21.10;6.43;;;8.50;99.90;;;;;;6014504;23;20491;-76
2023/01/13 06:03:38;;;;;;;17.97;6.00;;;8.40;99.90;;;;;;6049315;23;20419;-76
2023/01/13 06:06:07;;;;;;;21.83;6.80;;;8.40;99.90;;;;;;6014485;23;20467;-76
2023/01/13 06:08:36;;;;;;;20.70;5.83;;;8.50;99.90;;;;;;6014690;23;20444;-76
2023/01/13 06:11:07;;;;;;;20.93;6.23;;;8.40;99.90;;;;;;6049679;23;20383;-77
2023/01/13 06:13:36;;;;;;;19.47;5.87;;;8.50;99.90;;;;;;6014721;23;20466;-76
2023/01/13 06:16:05;;;;;;;17.23;5.53;;;8.50;99.90;;;;;;6049347;23;20427;-76
2023/01/13 06:18:33;;;;;;;22.53;5.37;;;8.40;99.90;;;;;;6014663;23;20426;-76
2023/01/13 06:21:01;;;;;;;18.03;6.60;;;8.50;99.90;;;;;;6014512;23;20434;-76
2023/01/13 06:23:33;;;;;;;16.57;5.63;;;8.50;99.90;;;;;;6049556;23;20473;-76
2023/01/13 06:26:08;;;;;;;16.37;4.50;;;8.50;99.90;;;;;;6049118;23;20423;-76
2023/01/13 06:28:37;;;;;;;16.93;5.80;;;8.50;99.90;;;;;;6049140;23;20887;-76
2023/01/13 06:31:08;;;;;;;29.30;7.17;;;8.50;99.90;;;;;;6014605;23;20436;-76
2023/01/13 06:33:38;;;;;;;18.77;6.53;;;8.50;99.90;;;;;;6014740;23;20422;-76
2023/01/13 06:36:14;;;;;;;21.50;6.53;;;8.50;99.90;;;;;;6014481;23;20447;-76
2023/01/13 06:38:47;;;;;;;20.47;6.23;;;8.50;99.90;;;;;;6039957;23;20406;-76
2023/01/13 06:41:16;;;;;;;19.77;6.37;;;8.50;99.90;;;;;;6014618;23;20448;-76
2023/01/13 06:43:45;;;;;;;20.37;7.50;;;8.50;99.90;;;;;;6049172;23;20491;-76
2023/01/13 06:46:13;;;;;;;20.23;6.63;;;8.50;99.90;;;;;;6049018;23;20420;-76
2023/01/13 06:48:41;;;;;;;21.33;6.67;;;8.50;99.90;;;;;;6039307;23;20451;-76
2023/01/13 06:51:09;;;;;;;21.33;6.37;;;8.50;99.90;;;;;;6014353;23;20423;-76
2023/01/13 06:53:37;;;;;;;15.77;6.43;;;8.50;99.90;;;;;;6049018;23;20899;-76
2023/01/13 06:56:06;;;;;;;20.30;6.27;;;8.50;99.90;;;;;;6049032;23;20435;-76
2023/01/13 06:58:34;;;;;;;19.80;6.50;;;8.50;99.90;;;;;;6039890;23;20412;-76
2023/01/13 07:01:03;;;;;;;17.00;6.17;;;8.50;99.90;;;;;;6049103;23;20758;-76
2023/01/13 07:03:32;;;;;;;21.03;6.70;;;8.50;99.90;;;;;;6014255;23;20472;-76
2023/01/13 07:06:01;;;;;;;20.20;6.20;;;8.50;99.90;;;;;;6014270;23;20461;-76
2023/01/13 07:08:29;;;;;;;17.23;5.50;;;8.50;99.90;;;;;;6014193;23;20479;-76
2023/01/13 07:10:57;;;;;;;17.90;6.60;;;8.50;99.90;;;;;;6039437;23;20422;-76
2023/01/13 07:16:12;;;;;;;21.33;6.20;;;8.40;99.90;;;;;;6050888;23;20416;-76
2023/01/13 07:18:40;;;;;;;17.50;5.23;;;8.40;99.90;;;;;;6015816;23;20424;-76
2023/01/13 07:21:11;;;;;;;16.13;5.90;;;8.40;99.90;;;;;;6050960;23;20400;-76
2023/01/13 07:23:41;;;;;;;18.83;6.30;;;8.40;99.90;;;;;;6016293;23;20424;-76
2023/01/13 07:26:10;;;;;;;19.53;7.63;;;8.40;99.90;;;;;;6041252;23;20732;-76
2023/01/13 07:28:38;;;;;;;18.27;6.30;;;8.40;99.90;;;;;;6050391;23;20431;-76
2023/01/13 07:31:14;;;;;;;18.40;6.00;;;8.40;99.90;;;;;;6015901;23;20414;-76
2023/01/13 07:33:43;;;;;;;18.97;5.97;;;8.40;99.90;;;;;;6050683;23;20849;-76
2023/01/13 07:36:11;;;;;;;18.13;6.07;;;8.30;99.90;;;;;;6015992;23;20466;-76
2023/01/13 07:38:40;;;;;;;13.97;4.97;;;8.30;99.90;;;;;;6050523;23;20400;-76
2023/01/13 07:43:59;;;;;;;17.40;5.13;;;8.30;99.90;;;;;;6050494;23;20388;-76
2023/01/13 07:46:28;;;;;;;13.10;4.40;;;8.30;99.90;;;;;;6050390;23;20533;-76
2023/01/13 07:48:56;;;;;;;16.40;5.17;;;8.30;99.90;;;;;;6018764;23;20479;-76
2023/01/13 07:51:24;;;;;;;12.17;4.23;;;8.30;99.90;;;;;;6039403;23;20433;-76
2023/01/13 07:53:52;;;;;;;16.43;4.80;;;8.30;99.90;;;;;;6050484;23;20408;-76
2023/01/13 07:56:21;;;;;;;13.50;4.37;;;8.30;99.90;;;;;;6039241;23;20492;-76
2023/01/13 07:58:51;;;;;;;14.23;4.73;;;8.30;99.90;;;;;;6050457;23;20412;-76
2023/01/13 08:01:20;;;;;;;12.40;4.73;;;8.30;99.90;;;;;;6039273;23;20416;-76
2023/01/13 08:03:50;;;;;;;12.30;4.03;;;8.30;99.90;;;;;;6050366;23;20478;-76
2023/01/13 08:06:18;;;;;;;13.10;4.50;;;8.30;99.90;;;;;;6050193;23;20427;-76
2023/01/13 08:08:46;;;;;;;14.10;4.07;;;8.30;99.90;;;;;;6039273;23;20448;-76
2023/01/13 08:11:14;;;;;;;10.97;4.10;;;8.30;99.90;;;;;;6050294;23;20483;-77
2023/01/13 08:13:42;;;;;;;15.50;3.67;;;8.30;99.90;;;;;;6039261;23;20431;-76
2023/01/13 08:16:12;;;;;;;10.80;3.60;;;8.30;99.90;;;;;;6039080;23;20478;-76
2023/01/13 08:18:41;;;;;;;12.53;3.87;;;8.30;99.90;;;;;;6050843;23;20404;-76
2023/01/13 08:21:13;;;;;;;14.20;3.70;;;8.30;99.90;;;;;;6039142;23;20419;-76
2023/01/13 08:23:42;;;;;;;10.40;3.00;;;8.40;99.90;;;;;;6050272;23;20762;-75
2023/01/13 08:26:13;;;;;;;12.40;3.37;;;8.40;99.90;;;;;;6038612;23;20466;-76
2023/01/13 08:28:41;;;;;;;11.13;4.10;;;8.40;99.90;;;;;;6039092;23;20420;-76
2023/01/13 08:31:11;;;;;;;11.43;4.53;;;8.40;99.90;;;;;;6039028;23;20812;-76
2023/01/13 08:33:40;;;;;;;13.83;4.40;;;8.40;99.90;;;;;;6039091;23;20416;-76
2023/01/13 08:36:11;;;;;;;11.63;3.20;;;8.40;99.90;;;;;;6040760;23;20436;-76
2023/01/13 08:38:41;;;;;;;8.70;3.80;;;8.40;99.90;;;;;;6038954;23;20510;-76
2023/01/13 08:41:10;;;;;;;11.00;3.60;;;8.40;99.90;;;;;;6038887;23;20415;-76
2023/01/13 08:43:38;;;;;;;14.63;4.20;;;8.40;99.90;;;;;;6049899;23;20400;-76
2023/01/13 08:46:06;;;;;;;11.40;3.17;;;8.40;99.90;;;;;;6038696;23;20436;-76
2023/01/13 08:48:35;;;;;;;8.27;3.37;;;8.40;99.90;;;;;;6038707;23;20445;-76
2023/01/13 08:51:04;;;;;;;14.47;3.63;;;8.40;99.90;;;;;;6015023;23;20764;-76
2023/01/13 08:53:34;;;;;;;10.03;3.67;;;8.40;99.90;;;;;;6040716;23;20408;-76
2023/01/13 08:56:06;;;;;;;8.83;3.13;;;8.50;99.90;;;;;;6049738;23;20443;-76
2023/01/13 08:58:34;;;;;;;10.90;4.20;;;8.50;99.90;;;;;;6015140;23;20417;-76
2023/01/13 09:01:05;;;;;;;12.13;4.23;;;8.60;99.90;;;;;;6049886;23;20400;-76
2023/01/13 09:03:33;;;;;;;8.97;3.07;;;8.50;99.90;;;;;;6015295;23;20436;-75
2023/01/13 09:06:01;;;;;;;12.20;3.10;;;8.60;99.90;;;;;;6049893;23;20420;-76
2023/01/13 09:08:29;;;;;;;11.03;3.87;;;8.60;99.90;;;;;;6049876;23;20892;-75
2023/01/13 09:10:59;;;;;;;11.57;3.80;;;8.60;99.90;;;;;;6040529;23;20500;-76
2023/01/13 09:13:26;;;;;;;7.70;3.23;;;8.60;99.90;;;;;;6015017;23;20423;-76
2023/01/13 09:15:55;;;;;;;8.00;3.27;;;8.60;99.90;;;;;;6016134;23;20493;-76
2023/01/13 09:18:24;;;;;;;10.33;3.13;;;8.60;99.90;;;;;;6014820;23;20419;-76
2023/01/13 09:20:52;;;;;;;8.13;2.90;;;8.60;99.90;;;;;;6050313;23;20488;-76
2023/01/13 09:23:20;;;;;;;9.87;3.50;;;8.60;99.90;;;;;;6049519;23;20403;-76
2023/01/13 09:25:49;;;;;;;10.53;3.27;;;8.70;99.90;;;;;;6049506;23;20425;-76
2023/01/13 09:28:18;;;;;;;11.87;4.03;;;8.70;99.90;;;;;;6014869;23;20765;-75
2023/01/13 09:30:46;;;;;;;11.30;3.30;;;8.70;99.90;;;;;;6014763;23;20446;-75
2023/01/13 09:36:00;;;;;;;13.30;3.90;;;8.70;99.90;;;;;;6049378;23;20435;-76
2023/01/13 09:38:28;;;;;;;9.93;3.30;;;8.70;99.90;;;;;;6014757;23;20424;-75
2023/01/13 09:40:56;;;;;;;12.27;4.00;;;8.80;99.90;;;;;;6014798;23;20426;-76
2023/01/13 09:49:19;;;;;;;11.53;4.20;;;8.80;99.90;;;;;;6049675;23;20419;-76
2023/01/13 09:51:52;;;;;;;11.13;4.10;;;8.80;99.90;;;;;;6049437;23;20848;-76
2023/01/13 09:54:30;;;;;;;11.07;3.57;;;8.80;99.90;;;;;;6049448;23;20392;-75
2023/01/13 09:56:59;;;;;;;12.00;4.03;;;8.80;99.90;;;;;;6049416;23;20939;-75
2023/01/13 09:59:35;;;;;;;9.77;3.77;;;8.90;99.90;;;;;;6049366;23;20779;-75
2023/01/13 10:02:19;;;;;;;11.93;4.17;;;8.90;99.90;;;;;;6014537;23;20809;-75
2023/01/13 10:05:03;;;;;;;8.43;3.30;;;8.90;99.90;;;;;;6015413;23;20787;-75
2023/01/13 10:07:34;;;;;;;7.90;3.20;;;8.90;99.90;;;;;;6014988;23;20442;-76
2023/01/13 10:10:03;;;;;;;11.20;4.10;;;8.90;99.90;;;;;;6049510;23;20427;-77
2023/01/13 10:15:26;;;;;;;10.97;3.70;;;8.90;99.90;;;;;;6049907;23;20392;-77
2023/01/13 10:18:02;;;;;;;10.53;4.30;;;8.90;99.90;;;;;;6049962;23;20387;-77
2023/01/13 10:20:35;;;;;;;13.67;4.87;;;8.90;99.90;;;;;;6049789;23;20384;-76
2023/01/13 10:23:10;;;;;;;10.63;3.93;;;8.90;99.90;;;;;;6014669;23;20865;-76
2023/01/13 10:25:51;;;;;;;16.37;4.60;;;8.80;99.90;;;;;;6014719;23;20424;-77
2023/01/13 10:28:22;;;;;;;11.80;4.90;;;8.80;99.90;;;;;;6050503;23;20715;-77
2023/01/13 10:30:52;;;;;;;13.30;5.07;;;8.70;99.90;;;;;;6041317;23;20443;-76
2023/01/13 10:33:23;;;;;;;11.80;4.10;;;8.60;99.90;;;;;;6016809;23;20434;-77
2023/01/13 10:35:59;;;;;;;9.40;4.30;;;8.60;99.90;;;;;;6050357;23;20427;-77
2023/01/13 10:38:30;;;;;;;14.20;5.00;;;8.50;99.90;;;;;;6014585;23;20415;-77
2023/01/13 10:41:00;;;;;;;12.77;4.30;;;8.50;99.90;;;;;;6014597;23;20504;-77
2023/01/13 10:43:29;;;;;;;12.77;4.40;;;8.50;99.90;;;;;;6049230;23;20411;-77
2023/01/13 10:46:02;;;;;;;12.17;4.53;;;8.50;99.90;;;;;;6014484;23;20538;-76
2023/01/13 10:48:51;;;;;;;13.70;4.07;;;8.50;99.90;;;;;;6047408;23;20411;-77
2023/01/13 10:51:23;;;;;;;12.60;4.30;;;8.60;99.90;;;;;;6016392;23;20435;-76
2023/01/13 10:53:56;;;;;;;9.87;4.10;;;8.60;99.90;;;;;;6051299;23;20440;-75
2023/01/13 10:56:27;;;;;;;11.40;5.07;;;8.60;99.90;;;;;;6050836;23;20458;-75
2023/01/13 10:59:17;;;;;;;12.03;4.40;;;8.60;99.90;;;;;;6016287;23;20481;-76
2023/01/13 11:01:59;;;;;;;14.67;4.30;;;8.70;99.90;;;;;;6016274;23;20414;-78
2023/01/13 11:04:32;;;;;;;13.37;4.40;;;8.70;99.90;;;;;;6051312;23;20384;-76
2023/01/13 11:07:02;;;;;;;10.97;4.30;;;8.70;99.90;;;;;;6016289;23;20780;-77
2023/01/13 11:09:31;;;;;;;11.73;4.80;;;8.70;99.90;;;;;;6016210;23;20418;-77
2023/01/13 11:12:01;;;;;;;11.90;4.43;;;8.70;99.90;;;;;;6041106;23;20460;-76
2023/01/13 11:14:41;;;;;;;14.80;4.70;;;8.70;99.90;;;;;;6017642;23;20743;-77
2023/01/13 11:17:27;;;;;;;13.60;4.20;;;8.80;99.90;;;;;;6050731;23;20420;-75
2023/01/13 11:20:03;;;;;;;14.83;4.67;;;8.80;99.90;;;;;;6016016;23;20419;-76
2023/01/13 11:22:37;;;;;;;10.37;3.80;;;8.80;99.90;;;;;;6015958;23;20426;-75
2023/01/13 11:25:11;;;;;;;12.23;3.90;;;8.80;99.90;;;;;;6041494;23;20400;-76
2023/01/13 11:27:43;;;;;;;14.00;4.13;;;8.80;99.90;;;;;;6015895;23;20449;-76
2023/01/13 11:30:23;;;;;;;10.43;3.23;;;8.80;99.90;;;;;;6050838;23;20844;-76
2023/01/13 11:33:06;;;;;;;14.13;4.37;;;8.80;99.90;;;;;;6050698;23;20408;-76
2023/01/13 11:35:41;;;;;;;12.00;3.57;;;8.80;99.90;;;;;;6015737;23;20752;-76
2023/01/13 11:38:19;;;;;;;10.00;4.10;;;8.90;99.90;;;;;;6015915;23;20507;-77
2023/01/13 11:40:50;;;;;;;9.00;3.43;;;8.80;99.90;;;;;;6015923;23;20430;-75
2023/01/13 11:43:29;;;;;;;13.23;4.43;;;8.80;99.90;;;;;;6015813;23;20420;-75
2023/01/13 11:45:59;;;;;;;12.20;4.43;;;8.80;99.90;;;;;;6050463;23;20416;-76
2023/01/13 11:48:32;;;;;;;11.77;4.53;;;8.90;99.90;;;;;;6050294;23;20432;-77
2023/01/13 11:51:08;;;;;;;11.20;4.03;;;8.80;99.90;;;;;;6050525;23;20420;-76
2023/01/13 11:54:00;;;;;;;10.40;4.00;;;8.90;99.90;;;;;;6016133;23;20415;-77
2023/01/13 11:56:45;;;;;;;8.93;3.07;;;8.90;99.90;;;;;;6050656;23;20752;-76
2023/01/13 11:59:37;;;;;;;9.93;3.97;;;8.90;99.90;;;;;;6015579;23;20467;-76
2023/01/13 12:02:21;;;;;;;10.50;3.20;;;9.00;99.90;;;;;;6050234;23;20373;-76
2023/01/13 12:04:57;;;;;;;10.60;3.87;;;8.90;99.90;;;;;;6015724;23;20423;-77
2023/01/13 12:07:41;;;;;;;9.83;3.33;;;8.90;99.90;;;;;;6015628;23;20940;-77
2023/01/13 12:10:17;;;;;;;10.57;3.40;;;8.90;99.90;;;;;;6050441;23;20836;-77
2023/01/13 12:12:53;;;;;;;10.20;3.27;;;8.90;99.90;;;;;;6015591;23;20439;-76
2023/01/13 12:15:35;;;;;;;10.53;3.70;;;8.80;99.90;;;;;;6040996;23;20416;-76
2023/01/13 12:18:25;;;;;;;14.83;4.17;;;8.80;99.90;;;;;;6015466;23;20440;-76
2023/01/13 12:21:11;;;;;;;9.60;3.23;;;8.80;99.90;;;;;;6015524;23;20503;-75
2023/01/13 12:23:47;;;;;;;13.40;4.50;;;8.80;99.90;;;;;;6050493;23;20393;-76
2023/01/13 12:26:17;;;;;;;12.10;4.80;;;8.70;99.90;;;;;;6015335;23;20448;-76
2023/01/13 12:28:51;;;;;;;9.43;3.30;;;8.80;99.90;;;;;;6050082;23;20410;-76
2023/01/13 12:31:20;;;;;;;11.67;4.17;;;8.80;99.90;;;;;;6050344;23;20511;-75
2023/01/13 12:34:00;;;;;;;9.00;3.53;;;8.80;99.90;;;;;;6040750;23;20405;-76
2023/01/13 12:36:34;;;;;;;14.83;3.70;;;8.80;99.90;;;;;;6040680;23;20432;-76
2023/01/13 12:39:15;;;;;;;9.83;3.67;;;8.80;99.90;;;;;;6015294;23;20416;-76
2023/01/13 12:44:33;;;;;;;13.57;3.60;;;8.80;99.90;;;;;;6050000;23;20440;-76
2023/01/13 12:47:01;;;;;;;12.90;3.67;;;8.80;99.90;;;;;;6015353;23;20439;-76
2023/01/13 12:49:31;;;;;;;11.90;4.27;;;8.80;99.90;;;;;;6025262;23;20431;-76
2023/01/13 12:52:17;;;;;;;9.57;3.33;;;8.80;99.90;;;;;;6049946;23;20432;-76
2023/01/13 12:55:16;;;;;;;11.20;3.70;;;8.80;99.90;;;;;;6039174;23;20415;-76
2023/01/13 12:57:59;;;;;;;12.50;3.60;;;8.80;99.90;;;;;;6050171;23;20522;-75
2023/01/13 13:00:36;;;;;;;12.20;3.90;;;8.90;99.90;;;;;;6050094;23;20868;-76
2023/01/13 13:03:31;;;;;;;11.77;4.13;;;8.90;99.90;;;;;;6049874;23;20387;-76
2023/01/13 13:06:05;;;;;;;10.03;3.80;;;8.90;99.90;;;;;;6038682;23;20440;-75
2023/01/13 13:08:49;;;;;;;11.13;3.40;;;8.90;99.90;;;;;;6040274;23;20451;-76
2023/01/13 13:14:11;;;;;;;12.00;3.80;;;8.90;99.90;;;;;;6038775;23;20415;-76
2023/01/13 13:16:59;;;;;;;11.07;3.53;;;8.90;99.90;;;;;;6049936;23;20428;-75
2023/01/13 13:19:49;;;;;;;7.93;2.97;;;9.00;99.90;;;;;;6038708;23;20874;-76
2023/01/13 13:22:43;;;;;;;10.43;3.50;;;9.00;99.90;;;;;;6049663;23;20735;-76
2023/01/13 13:25:29;;;;;;;9.10;3.80;;;9.00;99.90;;;;;;6049715;23;20404;-76
2023/01/13 13:28:18;;;;;;;10.77;3.87;;;8.90;99.90;;;;;;6039520;23;20408;-75
2023/01/13 13:30:56;;;;;;;9.60;3.70;;;8.90;99.90;;;;;;6049542;23;20476;-76
2023/01/13 13:34:02;;;;;;;15.00;4.10;;;8.90;99.90;;;;;;6038673;23;20717;-76
2023/01/13 13:36:52;;;;;;;8.87;3.20;;;8.90;99.90;;;;;;6027939;23;20534;-76
2023/01/13 13:48:23;;;;;;;14.80;4.60;;;8.90;99.90;;;;;;5961916;24;20395;-76
2023/01/13 13:50:55;;;;;;;8.90;3.70;;;8.90;99.90;;;;;;6024572;23;20427;-76
2023/01/13 13:53:25;;;;;;;14.03;4.37;;;8.90;99.90;;;;;;6038588;23;20436;-76
2023/01/13 13:55:56;;;;;;;9.70;4.10;;;8.90;99.90;;;;;;6038550;23;20440;-76
2023/01/13 13:58:27;;;;;;;13.07;4.07;;;8.90;99.90;;;;;;6038537;23;20483;-75
2023/01/13 14:00:56;;;;;;;10.40;3.80;;;8.90;99.90;;;;;;6038732;23;20407;-76
2023/01/13 14:03:29;;;;;;;10.40;3.77;;;8.90;99.90;;;;;;6039992;23;20551;-76
2023/01/13 14:05:59;;;;;;;8.80;3.90;;;8.90;99.90;;;;;;6041935;23;20447;-76
2023/01/13 14:08:30;;;;;;;10.70;3.67;;;8.90;99.90;;;;;;6051418;23;20414;-76
2023/01/13 14:10:58;;;;;;;9.60;3.50;;;8.90;99.90;;;;;;6050667;23;20388;-76